Time;durP1;ratioP1;P1;durP2;ratioP2;P2;SDS_P1;SDS_P2;PMS_P1;PMS_P2;Temp;Humidity;BMP_temperature;BMP_pressure;BME280_temperature;BME280_humidity;BME280_pressure;Samples;Min_cycle;Max_cycle;Signal;HPM_P1;HPM_P2
2022/03/04 00:01:43;;;;;;;;;;;;;;;20.83;44.42;100167.69;20693174;27;101146;-81
2022/03/04 00:11:43;;;;;;;;;;;;;;;20.78;44.40;100164.56;20691959;28;101800;-81
2022/03/04 00:21:47;;;;;;;;;;;;;;;20.72;44.66;100168.53;20693727;27;100855;-81
2022/03/04 00:31:47;;;;;;;;;;;;;;;20.70;44.41;100165.16;20703052;27;99385;-81
2022/03/04 00:41:48;;;;;;;;;;;;;;;20.66;44.57;100160.25;20703449;27;99107;-81
2022/03/04 00:51:48;;;;;;;;;;;;;;;20.64;44.72;100163.84;20706270;28;97665;-81
2022/03/04 01:01:50;;;;;;;;;;;;;;;20.62;44.33;100157.84;20703389;28;98434;-81
2022/03/04 01:11:51;;;;;;;;;;;;;;;20.55;44.68;100161.91;20694691;27;101583;-80
2022/03/04 01:21:51;;;;;;;;;;;;;;;20.57;44.39;100152.13;20682075;28;99059;-80
2022/03/04 01:31:52;;;;;;;;;;;;;;;20.50;44.67;100145.66;20688445;27;99203;-81
2022/03/04 01:41:53;;;;;;;;;;;;;;;20.48;44.76;100152.84;20704262;27;97099;-81
2022/03/04 01:51:54;;;;;;;;;;;;;;;20.46;44.44;100152.13;20681440;27;97378;-81
2022/03/04 02:01:54;;;;;;;;;;;;;;;20.46;44.50;100146.88;20690358;27;99117;-80
2022/03/04 02:11:56;;;;;;;;;;;;;;;20.43;44.50;100147.09;20694125;28;97199;-81
2022/03/04 02:21:58;;;;;;;;;;;;;;;20.38;44.43;100144.00;20694862;28;97149;-81
2022/03/04 02:31:58;;;;;;;;;;;;;;;20.36;44.64;100159.06;20685190;27;96983;-80
2022/03/04 02:41:59;;;;;;;;;;;;;;;20.31;44.63;100168.16;20690567;27;97695;-81
2022/03/04 02:51:59;;;;;;;;;;;;;;;20.31;44.57;100170.78;20691570;27;97148;-81
2022/03/04 03:02:00;;;;;;;;;;;;;;;20.27;44.86;100163.25;20687703;27;97336;-82
2022/03/04 03:12:02;;;;;;;;;;;;;;;20.27;44.63;100163.25;20682613;27;99710;-82
2022/03/04 03:22:05;;;;;;;;;;;;;;;20.27;44.51;100169.31;20704340;28;97656;-81
2022/03/04 03:32:13;;;;;;;;;;;;;;;20.22;44.58;100182.00;20703737;27;99903;-82
2022/03/04 03:42:13;;;;;;;;;;;;;;;20.19;44.53;100186.66;20706673;28;97389;-82
2022/03/04 03:52:14;;;;;;;;;;;;;;;20.16;44.74;100182.47;20701799;28;99654;-81
2022/03/04 04:02:14;;;;;;;;;;;;;;;20.11;44.50;100181.97;20695663;28;97542;-81
2022/03/04 04:12:16;;;;;;;;;;;;;;;20.10;44.62;100190.81;20697895;28;97396;-81
2022/03/04 04:22:17;;;;;;;;;;;;;;;20.09;44.71;100194.41;20691405;27;97719;-81
2022/03/04 04:32:17;;;;;;;;;;;;;;;20.06;44.83;100194.66;20681158;27;96870;-81
2022/03/04 04:42:19;;;;;;;;;;;;;;;20.09;44.55;100208.41;20700561;27;97090;-82
2022/03/04 04:52:21;;;;;;;;;;;;;;;20.13;44.21;100224.78;20707373;28;96995;-81
2022/03/04 05:02:22;;;;;;;;;;;;;;;20.13;44.53;100230.03;20710716;27;96956;-81
2022/03/04 05:12:23;;;;;;;;;;;;;;;20.15;44.70;100251.75;20707751;27;102991;-81
2022/03/04 05:22:25;;;;;;;;;;;;;;;20.26;44.53;100266.72;20707141;27;98011;-81
2022/03/04 05:32:25;;;;;;;;;;;;;;;20.42;45.06;100269.88;20693372;27;98496;-82
2022/03/04 05:42:25;;;;;;;;;;;;;;;20.55;45.62;100287.38;20685923;27;98413;-81
2022/03/04 05:52:26;;;;;;;;;;;;;;;20.63;45.70;100301.59;20688458;27;100940;-82
2022/03/04 06:02:28;;;;;;;;;;;;;;;20.71;45.37;100308.91;20667045;27;100283;-81
2022/03/04 06:12:29;;;;;;;;;;;;;;;20.72;45.49;100315.03;20675815;28;97363;-83
2022/03/04 06:22:29;;;;;;;;;;;;;;;20.66;42.83;100318.13;20694741;28;100192;-81
2022/03/04 06:32:30;;;;;;;;;;;;;;;20.61;40.29;100335.06;20685086;28;97650;-78
2022/03/04 06:42:30;;;;;;;;;;;;;;;20.73;42.57;100338.59;20675258;28;97647;-80
2022/03/04 06:52:30;;;;;;;;;;;;;;;20.83;43.21;100341.38;20666889;27;97660;-78
2022/03/04 07:02:31;;;;;;;;;;;;;;;20.86;43.48;100358.72;20655673;27;97396;-79
2022/03/04 07:12:31;;;;;;;;;;;;;;;20.89;43.65;100363.75;20656975;28;97340;-77
2022/03/04 07:22:32;;;;;;;;;;;;;;;20.93;43.67;100381.84;20663012;27;97442;-78
2022/03/04 07:32:33;;;;;;;;;;;;;;;20.98;44.02;100384.09;20659013;27;97135;-78
2022/03/04 07:42:33;;;;;;;;;;;;;;;21.05;43.69;100392.38;20649343;28;98014;-78
2022/03/04 07:52:34;;;;;;;;;;;;;;;21.10;43.72;100398.97;20658987;28;98057;-77
2022/03/04 08:02:34;;;;;;;;;;;;;;;21.14;43.53;100404.84;20654631;28;98537;-79
2022/03/04 08:12:35;;;;;;;;;;;;;;;21.16;43.62;100407.34;20675466;27;99418;-79
2022/03/04 08:22:36;;;;;;;;;;;;;;;21.18;43.37;100405.41;20683086;27;98040;-78
2022/03/04 08:32:36;;;;;;;;;;;;;;;21.20;43.06;100404.38;20673986;28;98272;-78
2022/03/04 08:42:41;;;;;;;;;;;;;;;21.24;43.20;100402.34;20664689;27;97158;-77
2022/03/04 08:52:41;;;;;;;;;;;;;;;21.26;43.08;100416.19;20672071;27;100787;-79
2022/03/04 09:02:42;;;;;;;;;;;;;;;21.28;42.99;100419.56;20688055;27;97546;-76
2022/03/04 09:12:43;;;;;;;;;;;;;;;21.29;43.06;100418.59;20655802;28;98318;-76
2022/03/04 09:22:45;;;;;;;;;;;;;;;21.26;39.66;100429.38;20655659;28;101461;-79
2022/03/04 09:32:46;;;;;;;;;;;;;;;21.04;35.67;100438.06;20684611;28;97511;-80
2022/03/04 09:42:47;;;;;;;;;;;;;;;20.99;38.92;100430.53;20697642;27;99780;-78
2022/03/04 09:52:50;;;;;;;;;;;;;;;21.03;39.88;100439.88;20679446;27;99622;-78
2022/03/04 10:02:50;;;;;;;;;;;;;;;21.05;40.16;100431.88;20695451;28;97669;-78
2022/03/04 10:12:54;;;;;;;;;;;;;;;21.05;41.46;100437.94;20687304;27;99218;-77
2022/03/04 10:23:08;;;;;;;;;;;;;;;21.03;41.54;100425.88;20684454;28;99240;-80
2022/03/04 10:33:09;;;;;;;;;;;;;;;21.02;41.49;100430.31;20681214;27;96894;-78
2022/03/04 10:43:11;;;;;;;;;;;;;;;21.01;41.90;100428.63;20694422;28;96913;-80
2022/03/04 10:53:14;;;;;;;;;;;;;;;21.04;41.57;100425.75;20715656;27;96946;-80
2022/03/04 11:03:16;;;;;;;;;;;;;;;21.09;41.96;100418.34;20689313;28;97464;-79
2022/03/04 11:13:17;;;;;;;;;;;;;;;21.11;41.86;100421.69;20701722;28;97763;-79
2022/03/04 11:23:21;;;;;;;;;;;;;;;21.10;41.61;100421.81;20680241;27;97597;-79
2022/03/04 11:33:23;;;;;;;;;;;;;;;21.11;42.15;100415.59;20674815;28;96987;-81
2022/03/04 11:43:42;;;;;;;;;;;;;;;21.17;42.80;100427.47;20690063;28;97712;-81
2022/03/04 11:53:43;;;;;;;;;;;;;;;21.23;43.17;100421.72;20709041;28;97260;-79
2022/03/04 12:04:02;;;;;;;;;;;;;;;21.32;44.94;100430.69;20683352;28;97396;-79
2022/03/04 12:14:07;;;;;;;;;;;;;;;21.36;45.48;100427.72;20718301;28;98407;-80
2022/03/04 12:24:08;;;;;;;;;;;;;;;21.37;44.25;100425.91;20710623;28;98015;-79
2022/03/04 12:34:19;;;;;;;;;;;;;;;21.41;44.47;100422.91;20713228;27;97516;-79
2022/03/04 12:44:20;;;;;;;;;;;;;;;21.47;44.50;100433.94;20702674;28;100839;-80
2022/03/04 12:54:22;;;;;;;;;;;;;;;21.49;44.33;100418.84;20723141;27;97612;-79
2022/03/04 13:04:23;;;;;;;;;;;;;;;21.49;44.11;100411.78;20696189;28;96991;-81
2022/03/04 13:14:25;;;;;;;;;;;;;;;21.51;43.83;100396.69;20684902;28;97626;-78
2022/03/04 13:24:27;;;;;;;;;;;;;;;21.58;44.05;100399.69;20677797;28;101615;-78
2022/03/04 13:34:28;;;;;;;;;;;;;;;21.66;44.72;100407.00;20670727;28;98263;-78
2022/03/04 13:44:29;;;;;;;;;;;;;;;21.74;45.32;100401.97;20681175;27;104003;-77
2022/03/04 13:55:05;;;;;;;;;;;;;;;21.82;45.88;100401.34;20651263;27;99105;-77
2022/03/04 14:05:06;;;;;;;;;;;;;;;21.88;46.82;100395.59;20643032;28;98538;-81
2022/03/04 14:15:07;;;;;;;;;;;;;;;21.96;46.77;100389.69;20689366;28;99830;-79
2022/03/04 14:25:08;;;;;;;;;;;;;;;22.04;47.97;100392.56;20692689;28;98389;-77
2022/03/04 14:35:09;;;;;;;;;;;;;;;22.03;47.54;100398.78;20683760;27;98171;-78
2022/03/04 14:45:10;;;;;;;;;;;;;;;22.06;47.28;100393.28;20673695;27;101149;-78
2022/03/04 14:55:12;;;;;;;;;;;;;;;22.07;47.63;100403.69;20656886;27;98831;-77
2022/03/04 15:05:14;;;;;;;;;;;;;;;22.04;47.11;100401.28;20648196;28;99139;-77
2022/03/04 15:15:17;;;;;;;;;;;;;;;22.00;46.28;100404.31;20648790;28;97681;-78
2022/03/04 15:25:18;;;;;;;;;;;;;;;21.94;44.92;100410.91;20658522;28;100759;-76
2022/03/04 15:35:18;;;;;;;;;;;;;;;21.85;42.98;100416.91;20666502;28;97503;-78
2022/03/04 15:45:19;;;;;;;;;;;;;;;21.80;42.90;100427.84;20663303;27;97909;-78
2022/03/04 15:55:21;;;;;;;;;;;;;;;21.67;42.81;100427.97;20685556;27;97760;-77
2022/03/04 16:05:21;;;;;;;;;;;;;;;21.59;42.45;100433.84;20683146;28;98053;-79
2022/03/04 16:15:21;;;;;;;;;;;;;;;21.54;43.18;100433.31;20694442;28;97248;-78
2022/03/04 16:25:22;;;;;;;;;;;;;;;21.50;43.04;100442.44;20679926;28;100096;-78
2022/03/04 16:35:22;;;;;;;;;;;;;;;21.44;42.82;100443.75;20681848;27;96981;-78
2022/03/04 16:45:24;;;;;;;;;;;;;;;21.36;42.97;100450.56;20660215;27;101182;-78
2022/03/04 16:55:25;;;;;;;;;;;;;;;21.38;43.25;100461.81;20687045;28;97325;-79
2022/03/04 17:05:26;;;;;;;;;;;;;;;21.36;43.68;100471.63;20674730;28;97286;-79
2022/03/04 17:15:28;;;;;;;;;;;;;;;21.36;43.73;100482.16;20673095;28;101627;-77
2022/03/04 17:25:29;;;;;;;;;;;;;;;21.33;44.23;100487.69;20676230;28;96974;-78
2022/03/04 17:35:29;;;;;;;;;;;;;;;21.30;43.73;100485.28;20660999;27;98320;-78
2022/03/04 17:45:32;;;;;;;;;;;;;;;21.26;44.49;100493.44;20658297;27;101809;-78
2022/03/04 17:55:32;;;;;;;;;;;;;;;21.24;43.67;100497.97;20683221;27;97750;-77
2022/03/04 18:05:33;;;;;;;;;;;;;;;21.21;43.71;100500.00;20659370;28;96959;-76
2022/03/04 18:15:33;;;;;;;;;;;;;;;21.17;43.61;100512.56;20661718;28;97888;-76
2022/03/04 18:25:34;;;;;;;;;;;;;;;21.13;43.50;100519.00;20670195;28;98389;-79
2022/03/04 18:35:35;;;;;;;;;;;;;;;21.13;44.35;100519.00;20679005;27;96959;-78
2022/03/04 18:45:43;;;;;;;;;;;;;;;21.17;44.92;100527.53;20657106;28;98301;-78
2022/03/04 18:55:44;;;;;;;;;;;;;;;21.26;44.23;100538.19;20663629;28;99262;-81
2022/03/04 19:05:45;;;;;;;;;;;;;;;21.39;44.40;100539.91;20677239;27;97110;-79
2022/03/04 19:15:45;;;;;;;;;;;;;;;21.52;44.59;100542.41;20677269;27;97995;-79
2022/03/04 19:25:45;;;;;;;;;;;;;;;21.56;44.13;100550.00;20679942;28;100099;-82
2022/03/04 19:35:46;;;;;;;;;;;;;;;21.58;44.27;100550.75;20685805;28;97861;-81
2022/03/04 19:45:47;;;;;;;;;;;;;;;21.53;43.12;100579.22;20683968;28;97740;-78
2022/03/04 19:55:47;;;;;;;;;;;;;;;21.57;43.86;100583.31;20670224;27;97881;-79
2022/03/04 20:05:48;;;;;;;;;;;;;;;21.62;43.55;100588.25;20661934;28;97634;-78
2022/03/04 20:15:48;;;;;;;;;;;;;;;21.61;44.00;100601.53;20678257;27;97854;-77
2022/03/04 20:25:49;;;;;;;;;;;;;;;21.63;43.90;100600.47;20677046;28;97728;-76
2022/03/04 20:35:49;;;;;;;;;;;;;;;21.62;43.76;100606.69;20669701;28;98370;-78
2022/03/04 20:45:50;;;;;;;;;;;;;;;21.61;44.47;100610.28;20657503;28;100820;-78
2022/03/04 20:55:51;;;;;;;;;;;;;;;21.58;44.14;100623.66;20657607;27;98001;-78
2022/03/04 21:05:51;;;;;;;;;;;;;;;21.60;43.85;100621.78;20672485;27;97704;-78
2022/03/04 21:15:52;;;;;;;;;;;;;;;21.59;44.04;100628.84;20649546;27;99347;-78
2022/03/04 21:25:52;;;;;;;;;;;;;;;21.52;44.73;100635.50;20661604;28;97092;-78
2022/03/04 21:35:52;;;;;;;;;;;;;;;21.45;44.94;100636.91;20663765;27;98316;-78
2022/03/04 21:45:53;;;;;;;;;;;;;;;21.36;45.03;100635.81;20660797;27;97028;-78
2022/03/04 21:55:53;;;;;;;;;;;;;;;21.29;45.11;100639.84;20637425;27;99577;-78
2022/03/04 22:05:54;;;;;;;;;;;;;;;21.23;45.20;100632.41;20623811;27;97883;-78
2022/03/04 22:15:54;;;;;;;;;;;;;;;21.16;44.78;100626.72;20641827;27;98275;-79
2022/03/04 22:25:55;;;;;;;;;;;;;;;21.07;45.86;100625.63;20632993;28;98094;-78
2022/03/04 22:35:55;;;;;;;;;;;;;;;21.03;45.42;100624.16;20635151;28;97179;-78
2022/03/04 22:45:56;;;;;;;;;;;;;;;20.99;46.09;100629.75;20633993;27;100779;-78
2022/03/04 22:55:56;;;;;;;;;;;;;;;20.97;46.09;100632.53;20645718;27;97095;-76
2022/03/04 23:16:16;;;;;;;;;;;;;;;20.87;46.25;100615.69;20629159;28;98253;-78
2022/03/04 23:26:17;;;;;;;;;;;;;;;20.84;46.16;100616.75;20624748;28;98362;-78
2022/03/04 23:36:18;;;;;;;;;;;;;;;20.79;46.07;100613.63;20619247;28;99078;-78
2022/03/04 23:46:18;;;;;;;;;;;;;;;20.72;45.87;100615.03;20640450;28;98968;-78
2022/03/04 23:56:19;;;;;;;;;;;;;;;20.69;45.95;100613.41;20654903;28;106973;-77
